createdAt,value
2018-12-25T00:01:32.399Z,98.36
2018-12-25T00:06:36.458Z,98.30
2018-12-25T00:11:41.875Z,98.92
2018-12-25T00:16:46.314Z,99.05
2018-12-25T00:21:50.339Z,98.84
2018-12-25T00:26:54.710Z,99.15
2018-12-25T00:31:59.287Z,99.44
2018-12-25T00:37:03.438Z,99.02
2018-12-25T00:42:07.704Z,99.12
2018-12-25T00:47:11.814Z,98.87
2018-12-25T00:52:17.695Z,98.46
2018-12-25T00:57:21.811Z,97.99
2018-12-25T01:02:26.107Z,99.67
2018-12-25T01:07:30.924Z,100.00
2018-12-25T01:12:35.329Z,100.00
2018-12-25T01:17:39.735Z,100.00
2018-12-25T01:22:43.830Z,100.00
2018-12-25T01:27:47.893Z,100.00
2018-12-25T01:38:26.622Z,100.00
2018-12-25T01:43:32.696Z,100.00
2018-12-25T01:48:37.087Z,100.00
2018-12-25T01:54:01.852Z,100.00
2018-12-25T01:59:26.569Z,100.00
2018-12-25T02:04:51.277Z,100.00
2018-12-25T02:09:55.652Z,100.00
2018-12-25T02:20:15.985Z,100.00
2018-12-25T02:25:20.067Z,100.00
2018-12-25T02:30:24.099Z,100.00
2018-12-25T02:35:28.127Z,100.00
2018-12-25T02:40:32.213Z,100.00
2018-12-25T02:45:55.605Z,100.00
2018-12-25T02:56:16.747Z,100.00
2018-12-25T03:01:41.452Z,100.00
2018-12-25T03:07:04.554Z,100.00
2018-12-25T03:12:08.635Z,100.00
2018-12-25T03:28:05.110Z,100.00
2018-12-25T03:38:26.925Z,100.00
2018-12-25T03:48:49.236Z,100.00
2018-12-25T03:53:55.069Z,100.00
2018-12-25T03:59:05.161Z,100.00
2018-12-25T04:04:09.275Z,100.00
2018-12-25T04:09:15.373Z,100.00
2018-12-25T04:14:19.472Z,100.00
2018-12-25T04:24:39.267Z,100.00
2018-12-25T04:29:44.984Z,100.00
2018-12-25T04:34:49.071Z,100.00
2018-12-25T04:45:29.395Z,99.52
2018-12-25T04:55:48.861Z,98.79
2018-12-25T05:00:54.618Z,99.09
2018-12-25T05:05:59.407Z,98.68
2018-12-25T05:11:03.444Z,98.74
2018-12-25T05:16:28.442Z,97.52
2018-12-25T05:26:47.903Z,97.04
2018-12-25T05:42:23.241Z,96.25
2018-12-25T05:47:46.269Z,96.17
2018-12-25T05:52:52.386Z,96.60
2018-12-25T05:58:15.503Z,96.21
2018-12-25T06:03:19.562Z,96.29
2018-12-25T06:08:23.611Z,96.30
2018-12-25T06:13:27.739Z,96.21
2018-12-25T06:18:52.551Z,95.71
2018-12-25T06:24:15.617Z,95.58
2018-12-25T06:29:21.404Z,94.93
2018-12-25T06:39:43.166Z,94.21
2018-12-25T06:45:07.979Z,93.28
2018-12-25T06:50:12.298Z,93.19
2018-12-25T06:55:37.075Z,93.16
2018-12-25T07:06:16.764Z,92.69
2018-12-25T07:11:20.988Z,92.67
2018-12-25T07:16:24.941Z,92.18
2018-12-25T07:21:28.966Z,92.42
2018-12-25T07:26:33.044Z,93.24
2018-12-25T07:31:37.066Z,94.92
2018-12-25T07:36:41.189Z,96.36
2018-12-25T07:41:45.178Z,96.72
2018-12-25T07:46:49.321Z,96.89
2018-12-25T07:51:53.714Z,96.79
2018-12-25T07:56:57.806Z,96.71
2018-12-25T08:02:01.896Z,95.87
2018-12-25T08:07:06.035Z,96.06
2018-12-25T08:12:10.064Z,95.09
2018-12-25T08:17:14.357Z,94.55
2018-12-25T08:22:18.409Z,93.29
2018-12-25T08:27:22.516Z,92.53
2018-12-25T08:32:26.640Z,92.16
2018-12-25T08:37:30.748Z,91.99
2018-12-25T08:42:34.812Z,91.23
2018-12-25T08:47:38.891Z,90.26
2018-12-25T08:52:43.414Z,90.45
2018-12-25T08:57:47.524Z,89.73
2018-12-25T09:02:51.758Z,89.32
2018-12-25T09:07:55.777Z,88.72
2018-12-25T09:12:59.932Z,88.77
2018-12-25T09:18:04.004Z,88.06
2018-12-25T09:23:08.114Z,88.03
2018-12-25T09:28:12.566Z,87.22
2018-12-25T09:33:16.691Z,88.69
2018-12-25T09:38:21.266Z,91.44
2018-12-25T09:43:26.000Z,92.75
2018-12-25T09:48:31.950Z,91.71
2018-12-25T09:53:36.211Z,92.16
2018-12-25T09:58:40.281Z,91.65
2018-12-25T10:03:44.971Z,90.86
2018-12-25T10:08:49.144Z,89.91
2018-12-25T10:13:53.238Z,88.67
2018-12-25T10:18:57.379Z,88.29
2018-12-25T10:24:01.596Z,86.80
2018-12-25T10:29:05.696Z,86.43
2018-12-25T10:34:09.825Z,85.77
2018-12-25T10:39:13.991Z,85.29
2018-12-25T10:44:21.221Z,80.89
2018-12-25T10:49:28.201Z,83.46
2018-12-25T10:54:35.344Z,83.69
2018-12-25T10:59:42.631Z,84.13
2018-12-25T11:04:50.276Z,83.96
2018-12-25T11:09:57.582Z,84.63
2018-12-25T11:15:01.835Z,85.37
2018-12-25T11:20:11.394Z,85.64
2018-12-25T11:25:11.759Z,85.40
2018-12-25T11:30:15.839Z,85.04
2018-12-25T11:35:19.948Z,84.70
2018-12-25T11:40:23.976Z,85.46
2018-12-25T11:45:28.080Z,86.03
2018-12-25T11:50:32.777Z,86.01
2018-12-25T11:55:38.641Z,86.71
2018-12-25T12:00:43.459Z,86.16
2018-12-25T12:05:49.019Z,86.97
2018-12-25T12:10:54.048Z,86.46
2018-12-25T12:15:59.152Z,85.83
2018-12-25T12:21:04.952Z,85.39
2018-12-25T12:37:02.611Z,85.11
2018-12-25T12:42:08.638Z,83.72
2018-12-25T12:52:29.209Z,83.28
2018-12-25T12:57:36.714Z,83.03
2018-12-25T13:02:40.759Z,82.99
2018-12-25T13:18:36.810Z,83.98
2018-12-25T13:23:41.064Z,83.76
2018-12-25T13:56:05.915Z,83.73
2018-12-25T14:01:12.070Z,83.88
2018-12-25T14:06:37.345Z,84.36
2018-12-25T14:12:08.282Z,85.25
2018-12-25T14:28:30.950Z,86.15
2018-12-25T14:33:45.885Z,86.40
2018-12-25T14:39:11.317Z,86.27
2018-12-25T14:44:17.409Z,86.24
2018-12-25T14:49:23.350Z,86.12
2018-12-25T15:00:05.794Z,85.79
2018-12-25T15:05:11.263Z,86.10
2018-12-25T15:10:21.801Z,85.36
2018-12-25T15:15:25.906Z,85.31
2018-12-25T15:20:29.960Z,85.10
2018-12-25T15:25:34.068Z,84.88
2018-12-25T15:30:38.175Z,84.99
2018-12-25T15:35:42.243Z,85.51
2018-12-25T15:40:46.315Z,85.03
2018-12-25T15:46:10.228Z,84.53
2018-12-25T15:57:11.594Z,83.70
2018-12-25T16:13:09.194Z,83.01
2018-12-25T16:29:06.784Z,83.05
2018-12-25T16:40:08.657Z,82.57
2018-12-25T16:56:25.477Z,82.65
2018-12-25T17:01:31.483Z,83.04
2018-12-25T17:06:35.513Z,82.74
2018-12-25T17:11:58.717Z,82.12
2018-12-25T17:17:04.512Z,82.07
2018-12-25T17:22:10.317Z,81.98
2018-12-25T17:27:16.063Z,82.43
2018-12-25T17:32:21.847Z,82.68
2018-12-25T17:37:29.521Z,82.68
2018-12-25T17:42:43.499Z,82.67
2018-12-25T17:53:24.356Z,82.06
2018-12-25T18:03:45.954Z,81.87
2018-12-25T18:08:50.311Z,81.77
2018-12-25T18:19:32.316Z,81.60
2018-12-25T18:24:38.103Z,81.61
2018-12-25T18:29:44.005Z,81.25
2018-12-25T18:34:50.184Z,80.37
2018-12-25T18:45:29.102Z,81.18
2018-12-25T18:50:34.973Z,81.14
2018-12-25T19:00:55.321Z,81.30
2018-12-25T19:05:59.410Z,81.30
2018-12-25T19:11:05.152Z,81.36
2018-12-25T19:21:43.635Z,80.92
2018-12-25T19:26:49.397Z,81.02
2018-12-25T19:31:55.140Z,81.34
2018-12-25T19:47:32.738Z,81.17
2018-12-25T19:52:38.481Z,81.36
2018-12-25T19:57:44.314Z,81.21
2018-12-25T20:03:13.951Z,80.84
2018-12-25T20:08:57.778Z,81.56
2018-12-25T20:14:41.604Z,80.18
2018-12-25T20:20:23.788Z,80.07
2018-12-25T20:26:07.631Z,80.61
2018-12-25T20:31:49.853Z,81.35
2018-12-25T20:37:33.660Z,80.28
2018-12-25T20:43:15.811Z,80.16
2018-12-25T20:48:58.010Z,80.06
2018-12-25T20:54:40.166Z,80.47
2018-12-25T21:11:53.796Z,80.11
2018-12-25T21:17:35.959Z,79.93
2018-12-25T21:23:18.663Z,79.56
2018-12-25T21:28:21.101Z,79.57
2018-12-25T21:50:38.922Z,79.64
2018-12-25T21:55:45.107Z,79.87
2018-12-25T22:12:02.379Z,80.16
2018-12-25T22:17:27.114Z,80.07
2018-12-25T22:22:32.881Z,79.79
2018-12-25T22:27:38.644Z,80.67
2018-12-25T22:33:12.775Z,80.05
2018-12-25T22:44:14.438Z,80.39
2018-12-25T22:54:36.171Z,80.72
2018-12-25T23:10:32.450Z,81.33
2018-12-25T23:20:54.478Z,81.49
2018-12-25T23:26:05.130Z,81.81
2018-12-25T23:36:25.835Z,81.89
2018-12-25T23:41:31.663Z,81.26
2018-12-25T23:46:56.614Z,81.66
2018-12-25T23:52:21.387Z,82.01
2018-12-25T23:57:27.517Z,82.33
